Time;durP1;ratioP1;P1;durP2;ratioP2;P2;SDS_P1;SDS_P2;PMS_P1;PMS_P2;Temp;Humidity;BMP_temperature;BMP_pressure;BME280_temperature;BME280_humidity;BME280_pressure;Samples;Min_cycle;Max_cycle;Signal;HPM_P1;HPM_P2
2021/06/08 00:00:29;;;;;;;18.27;7.10;;;;;;;;;;5098121;28;20027;-67
2021/06/08 00:02:55;;;;;;;14.30;7.00;;;;;;;;;;5097749;28;20038;-67
2021/06/08 00:05:20;;;;;;;14.18;7.28;;;;;;;;;;5110869;28;20019;-67
2021/06/08 00:07:45;;;;;;;13.15;7.05;;;;;;;;;;5113474;28;20104;-67
2021/06/08 00:10:11;;;;;;;14.73;6.78;;;;;;;;;;5113984;28;20047;-67
2021/06/08 00:12:37;;;;;;;19.85;7.60;;;;;;;;;;5114422;28;20035;-67
2021/06/08 00:15:03;;;;;;;13.82;7.00;;;;;;;;;;5113830;28;20019;-66
2021/06/08 00:17:28;;;;;;;16.63;6.90;;;;;;;;;;5113772;28;20032;-65
2021/06/08 00:19:54;;;;;;;15.40;6.70;;;;;;;;;;5113820;28;20126;-67
2021/06/08 00:22:19;;;;;;;16.92;7.85;;;;;;;;;;5114021;28;20059;-67
2021/06/08 00:24:44;;;;;;;18.27;6.43;;;;;;;;;;5113938;28;20534;-66
2021/06/08 00:27:10;;;;;;;16.23;6.50;;;;;;;;;;5113815;28;20031;-65
2021/06/08 00:29:35;;;;;;;11.82;6.68;;;;;;;;;;5114069;28;20036;-65
2021/06/08 00:32:00;;;;;;;18.65;6.97;;;;;;;;;;5113583;28;20058;-65
2021/06/08 00:34:26;;;;;;;15.32;6.53;;;;;;;;;;5113341;28;20038;-65
2021/06/08 00:36:51;;;;;;;16.80;9.13;;;;;;;;;;5113821;28;20031;-65
2021/06/08 00:39:16;;;;;;;13.38;7.15;;;;;;;;;;5114275;28;20051;-66
2021/06/08 00:41:44;;;;;;;15.88;6.78;;;;;;;;;;5113353;28;20475;-66
2021/06/08 00:44:13;;;;;;;18.33;7.18;;;;;;;;;;5113940;28;20016;-66
2021/06/08 00:46:43;;;;;;;14.68;6.60;;;;;;;;;;5113484;28;20104;-66
2021/06/08 00:49:08;;;;;;;15.25;7.22;;;;;;;;;;5112505;27;20055;-65
2021/06/08 00:51:33;;;;;;;20.77;6.60;;;;;;;;;;5113758;28;20023;-66
2021/06/08 00:54:05;;;;;;;15.50;6.82;;;;;;;;;;5113610;28;20109;-67
2021/06/08 00:56:30;;;;;;;12.23;6.50;;;;;;;;;;5112662;28;20123;-67
2021/06/08 00:58:55;;;;;;;13.73;6.78;;;;;;;;;;5113487;28;20115;-67
2021/06/08 01:01:21;;;;;;;15.73;6.60;;;;;;;;;;5113147;28;20028;-67
2021/06/08 01:03:46;;;;;;;16.10;6.72;;;;;;;;;;5113280;28;20109;-67
2021/06/08 01:06:11;;;;;;;20.67;6.97;;;;;;;;;;5112994;28;20024;-67
2021/06/08 01:08:36;;;;;;;14.93;6.75;;;;;;;;;;5113707;28;20430;-67
2021/06/08 01:11:02;;;;;;;14.88;6.43;;;;;;;;;;5112873;28;20048;-67
2021/06/08 01:13:29;;;;;;;14.52;6.80;;;;;;;;;;5112952;28;20052;-68
2021/06/08 01:15:54;;;;;;;13.10;6.20;;;;;;;;;;5113315;28;20028;-67
2021/06/08 01:18:19;;;;;;;19.05;7.45;;;;;;;;;;5113489;28;20559;-67
2021/06/08 01:20:45;;;;;;;13.68;5.90;;;;;;;;;;5112937;28;20042;-66
2021/06/08 01:23:10;;;;;;;16.13;5.93;;;;;;;;;;5111007;28;20073;-67
2021/06/08 01:25:35;;;;;;;18.73;7.20;;;;;;;;;;5109885;28;20035;-68
2021/06/08 01:28:01;;;;;;;21.45;6.80;;;;;;;;;;5109877;28;20370;-67
2021/06/08 01:30:28;;;;;;;19.10;6.63;;;;;;;;;;5098522;28;20028;-67
2021/06/08 01:32:53;;;;;;;17.63;5.63;;;;;;;;;;5113475;28;20036;-67
2021/06/08 01:35:20;;;;;;;16.52;6.00;;;;;;;;;;5095031;28;20023;-67
2021/06/08 01:37:45;;;;;;;14.40;6.05;;;;;;;;;;5113380;28;20055;-67
2021/06/08 01:40:14;;;;;;;16.88;6.05;;;;;;;;;;5113156;28;20116;-67
2021/06/08 01:42:40;;;;;;;14.48;6.60;;;;;;;;;;5113249;28;20106;-67
2021/06/08 01:45:05;;;;;;;11.18;5.38;;;;;;;;;;5112849;28;20111;-66
2021/06/08 01:47:31;;;;;;;18.90;6.93;;;;;;;;;;5113349;28;20023;-67
2021/06/08 01:49:56;;;;;;;11.48;5.68;;;;;;;;;;5113196;28;20394;-67
2021/06/08 01:52:42;;;;;;;16.30;6.28;;;;;;;;;;5112249;28;20034;-67
2021/06/08 01:55:19;;;;;;;11.05;5.55;;;;;;;;;;5113135;28;20036;-67
2021/06/08 01:57:52;;;;;;;15.30;5.97;;;;;;;;;;5113135;28;20071;-67
2021/06/08 02:00:33;;;;;;;16.67;6.43;;;;;;;;;;5108152;28;20475;-67
2021/06/08 02:03:20;;;;;;;16.20;6.13;;;;;;;;;;5094877;28;20376;-66
2021/06/08 02:06:09;;;;;;;17.33;5.72;;;;;;;;;;5095970;28;20161;-67
2021/06/08 02:08:43;;;;;;;15.68;5.55;;;;;;;;;;5096112;28;20063;-66
2021/06/08 02:11:22;;;;;;;17.48;6.22;;;;;;;;;;5096209;28;20167;-67
2021/06/08 02:14:00;;;;;;;15.95;5.85;;;;;;;;;;5096150;28;20477;-67
2021/06/08 02:16:34;;;;;;;14.52;5.90;;;;;;;;;;5112341;28;20040;-67
2021/06/08 02:18:59;;;;;;;14.40;6.70;;;;;;;;;;5116598;28;20039;-67
2021/06/08 02:21:28;;;;;;;17.95;6.50;;;;;;;;;;5116578;28;20042;-67
2021/06/08 02:23:54;;;;;;;23.92;6.32;;;;;;;;;;5116668;28;20019;-67
2021/06/08 02:26:22;;;;;;;13.90;5.95;;;;;;;;;;5116466;28;20391;-67
2021/06/08 02:28:48;;;;;;;12.95;5.88;;;;;;;;;;5116539;28;20114;-68
2021/06/08 02:31:14;;;;;;;16.98;6.47;;;;;;;;;;5116423;28;20092;-68
2021/06/08 02:33:40;;;;;;;19.38;6.93;;;;;;;;;;5116443;28;20119;-67
2021/06/08 02:36:07;;;;;;;14.43;5.75;;;;;;;;;;5115599;28;20023;-67
2021/06/08 02:38:33;;;;;;;15.35;6.43;;;;;;;;;;5116268;28;20061;-67
2021/06/08 02:40:59;;;;;;;15.10;5.85;;;;;;;;;;5116163;28;20114;-67
2021/06/08 02:43:25;;;;;;;17.85;6.78;;;;;;;;;;5116273;28;20084;-66
2021/06/08 02:45:51;;;;;;;19.50;6.43;;;;;;;;;;5116146;28;20015;-67
2021/06/08 02:48:17;;;;;;;18.38;6.10;;;;;;;;;;5116194;28;20027;-67
2021/06/08 02:50:45;;;;;;;16.30;6.50;;;;;;;;;;5115656;28;20084;-67
2021/06/08 02:53:10;;;;;;;16.65;5.88;;;;;;;;;;5116093;28;20364;-67
2021/06/08 02:55:36;;;;;;;13.20;5.78;;;;;;;;;;5116028;28;20028;-67
2021/06/08 02:58:01;;;;;;;21.17;7.28;;;;;;;;;;5115707;28;20027;-67
2021/06/08 03:00:26;;;;;;;16.00;6.00;;;;;;;;;;5115716;28;20034;-66
2021/06/08 03:02:53;;;;;;;12.50;6.10;;;;;;;;;;5115899;28;20032;-67
2021/06/08 03:05:24;;;;;;;15.45;6.63;;;;;;;;;;5115734;28;20031;-67
2021/06/08 03:07:51;;;;;;;13.48;6.25;;;;;;;;;;5115773;28;20012;-67
2021/06/08 03:10:18;;;;;;;12.15;5.68;;;;;;;;;;5115580;28;20051;-66
2021/06/08 03:13:04;;;;;;;15.13;6.05;;;;;;;;;;5115301;28;20042;-67
2021/06/08 03:15:40;;;;;;;14.18;5.80;;;;;;;;;;5115417;28;20023;-67
2021/06/08 03:18:07;;;;;;;17.38;6.07;;;;;;;;;;5115545;28;20030;-67
2021/06/08 03:20:59;;;;;;;15.23;6.07;;;;;;;;;;5115394;28;20040;-67
2021/06/08 03:23:26;;;;;;;19.17;6.32;;;;;;;;;;5091993;28;20556;-67
2021/06/08 03:25:53;;;;;;;16.63;6.40;;;;;;;;;;5115341;28;20073;-67
2021/06/08 03:28:19;;;;;;;24.92;6.60;;;;;;;;;;5115681;28;20036;-66
2021/06/08 03:30:45;;;;;;;14.05;6.53;;;;;;;;;;5115199;28;20043;-66
2021/06/08 03:33:11;;;;;;;16.42;6.07;;;;;;;;;;5115291;28;20063;-66
2021/06/08 03:35:37;;;;;;;16.52;5.95;;;;;;;;;;5115204;28;20039;-68
2021/06/08 03:38:02;;;;;;;17.55;5.82;;;;;;;;;;5115185;28;20012;-67
2021/06/08 03:40:28;;;;;;;16.55;6.63;;;;;;;;;;5114502;28;20441;-67
2021/06/08 03:42:53;;;;;;;21.38;7.10;;;;;;;;;;5115155;28;20077;-67
2021/06/08 03:45:19;;;;;;;13.77;5.68;;;;;;;;;;5114646;28;20030;-67
2021/06/08 03:47:45;;;;;;;18.63;6.38;;;;;;;;;;5115088;28;20036;-67
2021/06/08 03:50:12;;;;;;;14.32;6.50;;;;;;;;;;5114519;28;20036;-67
2021/06/08 03:52:38;;;;;;;12.90;5.80;;;;;;;;;;5114685;28;20053;-67
2021/06/08 03:55:04;;;;;;;21.23;6.60;;;;;;;;;;5114670;28;20028;-67
2021/06/08 03:57:32;;;;;;;17.33;6.47;;;;;;;;;;5113734;28;20395;-67
2021/06/08 03:59:58;;;;;;;16.63;6.05;;;;;;;;;;5113966;28;20035;-67
2021/06/08 04:02:24;;;;;;;22.65;6.47;;;;;;;;;;5114452;28;20028;-67
2021/06/08 04:04:49;;;;;;;16.30;6.25;;;;;;;;;;5114679;28;20073;-67
2021/06/08 04:07:17;;;;;;;17.95;5.50;;;;;;;;;;5114555;28;20126;-67
2021/06/08 04:09:45;;;;;;;22.25;6.50;;;;;;;;;;5114228;28;20455;-66
2021/06/08 04:12:11;;;;;;;21.10;6.30;;;;;;;;;;5113809;28;20023;-65
2021/06/08 04:14:36;;;;;;;13.98;5.78;;;;;;;;;;5113729;28;20034;-65
2021/06/08 04:17:02;;;;;;;19.38;7.47;;;;;;;;;;5113575;28;20139;-66
2021/06/08 04:19:27;;;;;;;17.15;6.75;;;;;;;;;;5114187;28;20078;-65
2021/06/08 04:21:52;;;;;;;21.75;6.68;;;;;;;;;;5113391;28;20110;-65
2021/06/08 04:24:18;;;;;;;20.80;6.40;;;;;;;;;;5113728;28;20031;-65
2021/06/08 04:26:43;;;;;;;15.82;5.68;;;;;;;;;;5113642;28;20027;-65
2021/06/08 04:29:08;;;;;;;15.85;5.57;;;;;;;;;;5113484;28;20486;-65
2021/06/08 04:31:34;;;;;;;17.02;6.13;;;;;;;;;;5114087;28;20036;-65
2021/06/08 04:33:59;;;;;;;20.45;6.57;;;;;;;;;;5114150;28;20024;-65
2021/06/08 04:36:25;;;;;;;14.98;5.45;;;;;;;;;;5095821;28;20020;-65
2021/06/08 04:38:51;;;;;;;12.65;5.55;;;;;;;;;;5113860;28;20027;-65
2021/06/08 04:41:16;;;;;;;12.20;5.60;;;;;;;;;;5113776;28;20042;-65
2021/06/08 04:43:42;;;;;;;14.88;6.35;;;;;;;;;;5114064;28;20022;-65
2021/06/08 04:46:11;;;;;;;16.17;5.38;;;;;;;;;;5113585;28;20387;-65
2021/06/08 04:48:36;;;;;;;13.35;4.45;;;;;;;;;;5113975;28;20031;-65
2021/06/08 04:51:02;;;;;;;13.75;4.40;;;;;;;;;;5113477;28;20384;-65
2021/06/08 04:53:27;;;;;;;206.07;13.85;;;;;;;;;;5113536;28;20023;-65
2021/06/08 04:55:53;;;;;;;95.93;9.15;;;;;;;;;;5113985;28;20035;-65
2021/06/08 04:58:19;;;;;;;153.63;10.18;;;;;;;;;;5113852;28;20023;-65
2021/06/08 05:01:08;;;;;;;99.65;9.18;;;;;;;;;;5113526;28;20414;-66
2021/06/08 05:03:40;;;;;;;117.75;11.32;;;;;;;;;;5113720;28;20050;-66
2021/06/08 05:06:08;;;;;;;48.85;5.00;;;;;;;;;;5113613;28;20042;-66
2021/06/08 05:08:41;;;;;;;29.88;3.78;;;;;;;;;;5113699;28;20361;-66
2021/06/08 05:11:06;;;;;;;272.92;13.93;;;;;;;;;;5113530;28;20587;-66
2021/06/08 05:13:32;;;;;;;5.38;2.60;;;;;;;;;;5113614;28;20067;-65
2021/06/08 05:15:58;;;;;;;7.30;2.25;;;;;;;;;;5113324;28;20476;-66
2021/06/08 05:18:25;;;;;;;5.72;2.47;;;;;;;;;;5113553;28;20031;-66
2021/06/08 05:20:51;;;;;;;8.27;2.20;;;;;;;;;;5113259;28;20048;-66
2021/06/08 05:23:17;;;;;;;2.35;1.63;;;;;;;;;;5113291;28;20046;-67
2021/06/08 05:25:44;;;;;;;3.70;1.90;;;;;;;;;;5113412;28;20533;-66
2021/06/08 05:28:10;;;;;;;2.30;2.00;;;;;;;;;;5113164;28;20430;-66
2021/06/08 05:30:37;;;;;;;4.32;2.20;;;;;;;;;;5112998;28;20486;-66
2021/06/08 05:33:03;;;;;;;4.80;2.03;;;;;;;;;;5113500;28;20066;-67
2021/06/08 05:35:29;;;;;;;4.30;1.88;;;;;;;;;;5116403;28;20063;-66
2021/06/08 05:38:01;;;;;;;4.55;1.60;;;;;;;;;;5117627;28;20379;-67
2021/06/08 05:40:26;;;;;;;4.30;1.70;;;;;;;;;;5117326;28;20040;-67
2021/06/08 05:42:52;;;;;;;3.65;1.80;;;;;;;;;;5117416;28;20528;-67
2021/06/08 05:45:17;;;;;;;3.45;2.20;;;;;;;;;;5117318;28;20378;-67
2021/06/08 05:47:42;;;;;;;3.47;2.10;;;;;;;;;;5117464;28;20024;-67
2021/06/08 05:50:08;;;;;;;5.30;2.47;;;;;;;;;;5117028;28;20067;-67
2021/06/08 05:52:34;;;;;;;3.50;1.85;;;;;;;;;;5116893;28;20023;-66
2021/06/08 05:55:00;;;;;;;3.97;1.60;;;;;;;;;;5117278;28;20031;-67
2021/06/08 05:57:26;;;;;;;4.22;1.60;;;;;;;;;;5117116;28;20040;-67
2021/06/08 05:59:51;;;;;;;3.08;1.60;;;;;;;;;;5117045;28;20028;-67
2021/06/08 06:02:17;;;;;;;4.50;1.40;;;;;;;;;;5116798;28;20074;-66
2021/06/08 06:04:45;;;;;;;3.70;1.30;;;;;;;;;;5117043;28;20472;-67
2021/06/08 06:07:11;;;;;;;2.65;1.30;;;;;;;;;;5116916;28;20026;-67
2021/06/08 06:09:37;;;;;;;3.05;1.88;;;;;;;;;;5116824;28;20047;-66
2021/06/08 06:12:03;;;;;;;6.00;1.50;;;;;;;;;;5116774;28;20472;-67
2021/06/08 06:14:28;;;;;;;2.20;1.30;;;;;;;;;;5116517;28;20019;-66
2021/06/08 06:16:54;;;;;;;6.78;1.60;;;;;;;;;;5116421;28;20019;-67
2021/06/08 06:19:35;;;;;;;4.78;1.25;;;;;;;;;;5093257;28;20064;-64
2021/06/08 06:22:00;;;;;;;3.00;1.50;;;;;;;;;;5116303;28;20043;-65
2021/06/08 06:24:27;;;;;;;2.90;1.30;;;;;;;;;;5116650;28;20036;-65
2021/06/08 06:26:53;;;;;;;3.15;1.80;;;;;;;;;;5116389;28;20034;-65
2021/06/08 06:29:18;;;;;;;3.97;1.42;;;;;;;;;;5116536;28;20024;-64
2021/06/08 06:31:47;;;;;;;3.47;1.67;;;;;;;;;;5116113;28;20468;-65
2021/06/08 06:34:13;;;;;;;2.45;1.40;;;;;;;;;;5116508;28;20353;-65
2021/06/08 06:36:39;;;;;;;4.20;1.83;;;;;;;;;;5116228;28;20027;-65
2021/06/08 06:39:06;;;;;;;5.00;1.70;;;;;;;;;;5115993;28;20484;-64
2021/06/08 06:41:32;;;;;;;2.72;1.48;;;;;;;;;;5116255;28;20020;-64
2021/06/08 06:43:58;;;;;;;5.88;1.80;;;;;;;;;;5116255;28;20038;-65
2021/06/08 06:46:24;;;;;;;3.35;1.70;;;;;;;;;;5115286;28;20500;-65
2021/06/08 06:48:53;;;;;;;3.65;2.05;;;;;;;;;;5116006;28;20068;-65
2021/06/08 06:51:19;;;;;;;3.40;1.70;;;;;;;;;;5115869;28;20141;-65
2021/06/08 06:53:47;;;;;;;4.93;1.90;;;;;;;;;;5116006;28;20495;-65
2021/06/08 06:56:12;;;;;;;3.03;1.70;;;;;;;;;;5115899;28;20019;-65
2021/06/08 06:58:41;;;;;;;3.92;1.80;;;;;;;;;;5115745;28;20031;-65
2021/06/08 07:01:07;;;;;;;4.30;1.73;;;;;;;;;;5115907;28;20036;-65
2021/06/08 07:03:32;;;;;;;3.42;1.70;;;;;;;;;;5115832;28;20024;-65
2021/06/08 07:05:59;;;;;;;3.40;1.60;;;;;;;;;;5115703;28;20376;-65
2021/06/08 07:08:25;;;;;;;4.80;1.80;;;;;;;;;;5115798;28;20027;-65
2021/06/08 07:10:54;;;;;;;3.22;1.65;;;;;;;;;;5104936;28;20787;-65
2021/06/08 07:13:19;;;;;;;5.35;1.90;;;;;;;;;;5114520;28;20036;-65
2021/06/08 07:15:46;;;;;;;4.00;2.03;;;;;;;;;;5103604;28;20439;-66
2021/06/08 07:18:11;;;;;;;3.42;1.90;;;;;;;;;;5109971;28;20019;-65
2021/06/08 07:20:37;;;;;;;3.40;1.50;;;;;;;;;;5102847;28;20136;-65
2021/06/08 07:23:03;;;;;;;4.78;1.80;;;;;;;;;;5114793;28;20092;-65
2021/06/08 07:25:34;;;;;;;4.03;1.83;;;;;;;;;;5113155;28;20027;-66
2021/06/08 07:27:59;;;;;;;5.00;2.20;;;;;;;;;;5114196;28;20483;-65
2021/06/08 07:30:24;;;;;;;5.22;2.33;;;;;;;;;;5098754;28;20032;-65
2021/06/08 07:32:50;;;;;;;5.07;2.15;;;;;;;;;;5106813;28;20040;-66
2021/06/08 07:35:21;;;;;;;4.40;1.85;;;;;;;;;;5102355;28;20035;-65
2021/06/08 07:37:48;;;;;;;6.72;2.13;;;;;;;;;;5102546;28;20038;-66
2021/06/08 07:40:18;;;;;;;6.75;2.47;;;;;;;;;;5113412;28;20098;-66
2021/06/08 07:42:48;;;;;;;5.35;2.10;;;;;;;;;;5113688;28;20024;-66
2021/06/08 07:45:34;;;;;;;9.27;3.80;;;;;;;;;;5114803;28;20032;-66
2021/06/08 07:48:02;;;;;;;5.05;2.53;;;;;;;;;;5112246;28;20020;-66
2021/06/08 07:50:31;;;;;;;5.35;2.45;;;;;;;;;;5103496;28;20030;-66
2021/06/08 07:52:56;;;;;;;5.25;2.33;;;;;;;;;;5111214;28;20024;-65
2021/06/08 07:55:21;;;;;;;4.78;2.28;;;;;;;;;;5111244;28;20036;-66
2021/06/08 07:57:47;;;;;;;4.75;2.20;;;;;;;;;;5110789;28;20027;-65
2021/06/08 08:00:13;;;;;;;4.68;2.42;;;;;;;;;;5106741;28;20040;-66
2021/06/08 08:02:38;;;;;;;4.38;2.00;;;;;;;;;;5110801;28;20035;-66
2021/06/08 08:05:09;;;;;;;3.08;1.67;;;;;;;;;;5106208;28;20460;-66
2021/06/08 08:07:35;;;;;;;4.32;2.17;;;;;;;;;;5109985;28;20051;-65
2021/06/08 08:10:00;;;;;;;6.88;2.22;;;;;;;;;;5113667;28;20151;-66
2021/06/08 08:12:26;;;;;;;4.53;2.00;;;;;;;;;;5113713;28;20040;-65
2021/06/08 08:14:52;;;;;;;5.32;1.77;;;;;;;;;;5113217;28;20019;-66
2021/06/08 08:17:18;;;;;;;4.22;2.10;;;;;;;;;;5113446;28;20024;-65
2021/06/08 08:19:43;;;;;;;5.93;1.90;;;;;;;;;;5113811;28;20482;-66
2021/06/08 08:22:09;;;;;;;4.50;1.80;;;;;;;;;;5104416;28;20085;-66
2021/06/08 08:24:34;;;;;;;4.18;1.70;;;;;;;;;;5112458;28;20035;-66
2021/06/08 08:27:02;;;;;;;3.38;1.73;;;;;;;;;;5112957;28;20031;-66
2021/06/08 08:29:27;;;;;;;4.50;1.70;;;;;;;;;;5109374;28;20035;-66
2021/06/08 08:31:53;;;;;;;3.30;1.67;;;;;;;;;;5109868;28;20027;-66
2021/06/08 08:34:19;;;;;;;7.43;2.10;;;;;;;;;;5109493;28;20047;-66
2021/06/08 08:36:44;;;;;;;5.78;2.20;;;;;;;;;;5111908;28;20023;-66
2021/06/08 08:39:10;;;;;;;6.20;2.10;;;;;;;;;;5106745;28;20035;-66
2021/06/08 08:41:36;;;;;;;5.15;2.60;;;;;;;;;;5108808;28;20043;-67
2021/06/08 08:44:02;;;;;;;4.35;1.85;;;;;;;;;;5110389;28;20023;-66
2021/06/08 08:46:27;;;;;;;5.15;2.55;;;;;;;;;;5110138;28;20035;-66
2021/06/08 08:48:54;;;;;;;5.00;1.95;;;;;;;;;;5110205;28;20085;-66
2021/06/08 08:51:20;;;;;;;4.38;1.90;;;;;;;;;;5100320;28;20099;-66
2021/06/08 08:53:46;;;;;;;3.35;1.88;;;;;;;;;;5082185;28;21866;-68
2021/06/08 08:56:12;;;;;;;4.05;2.10;;;;;;;;;;5095429;28;20036;-68
2021/06/08 08:58:37;;;;;;;5.35;2.00;;;;;;;;;;5102848;28;20460;-66
2021/06/08 09:01:03;;;;;;;6.32;2.25;;;;;;;;;;5099896;28;20028;-67
2021/06/08 09:03:28;;;;;;;3.25;1.63;;;;;;;;;;5105461;28;20504;-67
2021/06/08 09:05:59;;;;;;;6.55;2.20;;;;;;;;;;5105349;28;20357;-67
2021/06/08 09:08:25;;;;;;;5.82;2.10;;;;;;;;;;5105563;28;20019;-67
2021/06/08 09:10:52;;;;;;;5.82;2.95;;;;;;;;;;5099006;28;20059;-67
2021/06/08 09:13:17;;;;;;;5.70;2.58;;;;;;;;;;5105900;28;20030;-68
2021/06/08 09:15:43;;;;;;;6.20;2.45;;;;;;;;;;5098153;28;20368;-68
2021/06/08 09:18:08;;;;;;;5.85;2.38;;;;;;;;;;5098501;28;20507;-68
2021/06/08 09:20:35;;;;;;;6.70;2.40;;;;;;;;;;5105932;28;20073;-68
2021/06/08 09:23:04;;;;;;;7.20;2.88;;;;;;;;;;5098552;28;20053;-68
2021/06/08 09:25:36;;;;;;;5.38;2.92;;;;;;;;;;5096000;28;20032;-67
2021/06/08 09:28:20;;;;;;;5.15;2.70;;;;;;;;;;5097426;28;20039;-67
2021/06/08 09:31:03;;;;;;;4.95;2.58;;;;;;;;;;5102110;28;20051;-67
2021/06/08 09:33:29;;;;;;;4.80;2.50;;;;;;;;;;5095847;28;20566;-67
2021/06/08 09:35:59;;;;;;;4.75;2.55;;;;;;;;;;5098986;28;20073;-67
2021/06/08 09:38:39;;;;;;;4.18;1.95;;;;;;;;;;5103134;28;20035;-68
2021/06/08 09:41:11;;;;;;;5.22;2.20;;;;;;;;;;5106103;28;20073;-67
2021/06/08 09:43:56;;;;;;;5.28;2.05;;;;;;;;;;5087837;28;20036;-67
2021/06/08 09:46:25;;;;;;;5.20;2.25;;;;;;;;;;5097522;28;20484;-66
2021/06/08 09:48:55;;;;;;;6.15;2.47;;;;;;;;;;5093342;28;20029;-66
2021/06/08 09:51:20;;;;;;;7.10;3.13;;;;;;;;;;5100883;28;20028;-67
2021/06/08 09:53:46;;;;;;;7.90;3.42;;;;;;;;;;5096499;28;20464;-67
2021/06/08 09:56:13;;;;;;;6.88;2.40;;;;;;;;;;5100966;28;20074;-67
2021/06/08 09:58:43;;;;;;;4.88;2.50;;;;;;;;;;5103007;28;20070;-67
2021/06/08 10:01:20;;;;;;;6.20;2.67;;;;;;;;;;5094558;28;20031;-67
2021/06/08 10:03:47;;;;;;;6.15;2.97;;;;;;;;;;5091132;28;20089;-67
2021/06/08 10:06:13;;;;;;;8.20;2.50;;;;;;;;;;5103691;28;20447;-67
2021/06/08 10:08:39;;;;;;;7.65;2.88;;;;;;;;;;5102428;28;20027;-68
2021/06/08 10:11:13;;;;;;;5.93;3.10;;;;;;;;;;5099386;28;20063;-67
2021/06/08 10:13:39;;;;;;;5.60;3.20;;;;;;;;;;5102399;28;20536;-67
2021/06/08 10:16:07;;;;;;;5.13;2.80;;;;;;;;;;5100094;28;20032;-68
2021/06/08 10:18:46;;;;;;;6.45;3.03;;;;;;;;;;5095864;28;20050;-67
2021/06/08 10:21:12;;;;;;;4.70;3.15;;;;;;;;;;5099604;28;20043;-67
2021/06/08 10:23:37;;;;;;;5.32;2.90;;;;;;;;;;5101622;28;20517;-67
2021/06/08 10:26:05;;;;;;;5.50;3.15;;;;;;;;;;5100959;28;20388;-67
2021/06/08 10:28:30;;;;;;;9.05;3.22;;;;;;;;;;5096449;28;20032;-67
2021/06/08 10:30:56;;;;;;;8.68;3.10;;;;;;;;;;5099049;28;20048;-67
2021/06/08 10:33:23;;;;;;;5.80;2.90;;;;;;;;;;5099882;28;20468;-67
2021/06/08 10:35:50;;;;;;;8.38;3.20;;;;;;;;;;5094139;28;20536;-68
2021/06/08 10:38:16;;;;;;;6.53;2.72;;;;;;;;;;5097851;28;20111;-67
2021/06/08 10:40:42;;;;;;;8.98;3.85;;;;;;;;;;5104419;28;20099;-67
2021/06/08 10:43:18;;;;;;;9.85;3.67;;;;;;;;;;5105439;28;20134;-67
2021/06/08 10:45:44;;;;;;;6.22;2.35;;;;;;;;;;5106464;28;20039;-67
2021/06/08 10:48:14;;;;;;;5.15;2.00;;;;;;;;;;5096103;28;20028;-66
2021/06/08 10:50:44;;;;;;;6.20;2.63;;;;;;;;;;5107448;28;20047;-67
2021/06/08 10:53:24;;;;;;;4.03;2.60;;;;;;;;;;5099993;28;20103;-67
2021/06/08 10:55:49;;;;;;;7.70;2.75;;;;;;;;;;5092013;28;20046;-66
2021/06/08 10:58:16;;;;;;;6.45;2.20;;;;;;;;;;5100731;28;20522;-67
2021/06/08 11:00:43;;;;;;;8.85;2.78;;;;;;;;;;5102586;28;20720;-66
2021/06/08 11:03:09;;;;;;;7.05;2.67;;;;;;;;;;5075729;28;20079;-66
2021/06/08 11:05:45;;;;;;;6.18;2.55;;;;;;;;;;5103741;28;20100;-67
2021/06/08 11:08:10;;;;;;;5.95;2.42;;;;;;;;;;5091571;28;20031;-66
2021/06/08 11:10:43;;;;;;;5.40;3.05;;;;;;;;;;5097118;28;20048;-67
2021/06/08 11:13:08;;;;;;;6.55;3.08;;;;;;;;;;5101458;28;20073;-66
2021/06/08 11:15:54;;;;;;;6.88;3.28;;;;;;;;;;5100616;28;20035;-67
2021/06/08 11:18:19;;;;;;;6.03;3.33;;;;;;;;;;5106116;28;20032;-66
2021/06/08 11:20:46;;;;;;;5.70;3.20;;;;;;;;;;5094352;28;20452;-66
2021/06/08 11:23:29;;;;;;;7.82;3.63;;;;;;;;;;5098677;28;20541;-66
2021/06/08 11:25:55;;;;;;;7.82;4.18;;;;;;;;;;5101900;28;20527;-66
2021/06/08 11:28:20;;;;;;;11.27;3.92;;;;;;;;;;5104990;28;20027;-65
2021/06/08 11:30:55;;;;;;;6.53;3.20;;;;;;;;;;5085871;28;20059;-66
2021/06/08 11:33:50;;;;;;;8.15;3.70;;;;;;;;;;5100573;28;20439;-66
2021/06/08 11:36:18;;;;;;;8.18;2.90;;;;;;;;;;5089041;28;20062;-66
2021/06/08 11:38:44;;;;;;;8.15;4.22;;;;;;;;;;5091397;28;20031;-66
2021/06/08 11:41:10;;;;;;;7.80;3.97;;;;;;;;;;5101352;28;20035;-66
2021/06/08 11:43:35;;;;;;;6.30;3.45;;;;;;;;;;5107236;28;20031;-66
2021/06/08 11:46:01;;;;;;;9.73;4.35;;;;;;;;;;5100733;28;20038;-66
2021/06/08 11:48:37;;;;;;;9.35;4.20;;;;;;;;;;5105976;28;20495;-65
2021/06/08 11:51:14;;;;;;;5.20;3.60;;;;;;;;;;5091426;28;20044;-66
2021/06/08 11:53:57;;;;;;;7.18;4.10;;;;;;;;;;5102119;28;20161;-66
2021/06/08 11:56:40;;;;;;;8.70;3.97;;;;;;;;;;5088235;28;20485;-66
2021/06/08 11:59:08;;;;;;;10.07;4.25;;;;;;;;;;5101146;28;20399;-65
2021/06/08 12:01:38;;;;;;;7.25;3.92;;;;;;;;;;5103118;28;20073;-66
2021/06/08 12:04:03;;;;;;;10.57;3.83;;;;;;;;;;5106410;28;20035;-65
2021/06/08 12:06:54;;;;;;;11.77;4.88;;;;;;;;;;5089596;28;20031;-66
2021/06/08 12:09:20;;;;;;;8.30;4.20;;;;;;;;;;5088564;28;20121;-66
2021/06/08 12:11:46;;;;;;;8.25;3.85;;;;;;;;;;5095703;28;20036;-66
2021/06/08 12:14:11;;;;;;;6.43;3.13;;;;;;;;;;5099867;28;20027;-65
2021/06/08 12:16:38;;;;;;;5.53;3.22;;;;;;;;;;5109314;28;20032;-66
2021/06/08 12:19:07;;;;;;;11.48;3.50;;;;;;;;;;5109571;28;20039;-66
2021/06/08 12:21:33;;;;;;;12.27;3.40;;;;;;;;;;5110115;28;20027;-65
2021/06/08 12:23:59;;;;;;;7.75;3.00;;;;;;;;;;5108500;28;20024;-66
2021/06/08 12:26:24;;;;;;;10.07;3.28;;;;;;;;;;5109070;28;20042;-66
2021/06/08 12:29:03;;;;;;;7.78;3.28;;;;;;;;;;5109520;28;20095;-65
2021/06/08 12:31:29;;;;;;;5.70;2.22;;;;;;;;;;5109985;28;20042;-66
2021/06/08 12:33:54;;;;;;;6.00;2.58;;;;;;;;;;5110442;28;20036;-66
2021/06/08 12:36:20;;;;;;;4.88;2.83;;;;;;;;;;5110751;28;20028;-67
2021/06/08 12:38:45;;;;;;;6.95;2.65;;;;;;;;;;5109488;28;20027;-66
2021/06/08 12:41:11;;;;;;;4.45;1.90;;;;;;;;;;5109245;28;20062;-66
2021/06/08 12:43:42;;;;;;;5.50;2.50;;;;;;;;;;5099739;28;20107;-66
2021/06/08 12:46:08;;;;;;;8.32;3.03;;;;;;;;;;5109574;28;20568;-67
2021/06/08 12:48:33;;;;;;;9.65;3.05;;;;;;;;;;5110329;28;20039;-66
2021/06/08 12:50:58;;;;;;;6.10;3.20;;;;;;;;;;5109757;28;20076;-65
2021/06/08 12:53:25;;;;;;;8.25;2.70;;;;;;;;;;5110269;28;20035;-65
2021/06/08 12:55:52;;;;;;;5.63;3.22;;;;;;;;;;5109002;28;20039;-66
2021/06/08 12:58:18;;;;;;;6.32;2.60;;;;;;;;;;5110465;28;20035;-66
2021/06/08 13:00:44;;;;;;;8.73;3.35;;;;;;;;;;5109336;28;20020;-67
2021/06/08 13:03:09;;;;;;;7.07;2.78;;;;;;;;;;5107473;28;20024;-66
2021/06/08 13:05:36;;;;;;;9.13;3.70;;;;;;;;;;5110445;28;20053;-67
2021/06/08 13:08:01;;;;;;;10.32;3.28;;;;;;;;;;5109376;28;20034;-66
2021/06/08 13:10:28;;;;;;;7.00;3.05;;;;;;;;;;5109036;28;20055;-66
2021/06/08 13:12:54;;;;;;;8.23;3.80;;;;;;;;;;5108661;28;20024;-66
2021/06/08 13:15:28;;;;;;;8.38;3.58;;;;;;;;;;5109063;28;20103;-67
2021/06/08 13:18:09;;;;;;;5.05;3.08;;;;;;;;;;5094263;28;20047;-65
2021/06/08 13:20:37;;;;;;;5.60;3.22;;;;;;;;;;5105326;28;20114;-66
2021/06/08 13:23:03;;;;;;;5.68;2.60;;;;;;;;;;5095148;28;20048;-67
2021/06/08 13:25:28;;;;;;;7.20;2.90;;;;;;;;;;5100149;28;20023;-66
2021/06/08 13:27:54;;;;;;;8.00;2.65;;;;;;;;;;5088856;28;20032;-66
2021/06/08 13:30:24;;;;;;;7.20;2.53;;;;;;;;;;5104947;28;20051;-66
2021/06/08 13:33:16;;;;;;;7.22;3.90;;;;;;;;;;5096244;28;20460;-65
2021/06/08 13:35:51;;;;;;;8.65;3.30;;;;;;;;;;5092414;28;20060;-66
2021/06/08 13:38:20;;;;;;;3.80;2.38;;;;;;;;;;5090123;28;20053;-67
2021/06/08 13:40:46;;;;;;;10.77;2.97;;;;;;;;;;5109682;28;20070;-66
2021/06/08 13:43:12;;;;;;;5.35;2.83;;;;;;;;;;5109949;28;20028;-67
2021/06/08 13:45:45;;;;;;;8.13;1.80;;;;;;;;;;5110000;28;20043;-67
2021/06/08 13:48:46;;;;;;;4.90;1.70;;;;;;;;;;5108602;28;20120;-66
2021/06/08 13:51:11;;;;;;;5.75;2.17;;;;;;;;;;5107750;28;20043;-66
2021/06/08 13:53:37;;;;;;;5.15;2.10;;;;;;;;;;5109005;28;20031;-66
2021/06/08 13:56:23;;;;;;;5.05;1.98;;;;;;;;;;5111146;28;20035;-65
2021/06/08 14:01:36;;;;;;;4.50;1.95;;;;;;;;;;5111243;28;20066;-66
2021/06/08 14:04:04;;;;;;;7.85;1.98;;;;;;;;;;5111606;28;20436;-66
2021/06/08 14:06:29;;;;;;;4.53;1.92;;;;;;;;;;5112750;28;20047;-65
2021/06/08 14:08:56;;;;;;;3.85;1.98;;;;;;;;;;5105347;28;20410;-66
2021/06/08 14:11:33;;;;;;;10.00;1.83;;;;;;;;;;5092408;28;20102;-66
2021/06/08 14:13:59;;;;;;;5.90;1.65;;;;;;;;;;5092208;28;20837;-66
2021/06/08 14:16:24;;;;;;;7.75;2.20;;;;;;;;;;5108687;28;20023;-66
2021/06/08 14:18:49;;;;;;;3.42;1.60;;;;;;;;;;5112292;28;20035;-66
2021/06/08 14:21:15;;;;;;;4.47;1.30;;;;;;;;;;5108346;28;20114;-66
2021/06/08 14:23:40;;;;;;;7.93;1.45;;;;;;;;;;5097799;28;20073;-66
2021/06/08 14:26:15;;;;;;;4.90;1.33;;;;;;;;;;5093254;28;20042;-65
2021/06/08 14:28:41;;;;;;;2.75;1.20;;;;;;;;;;5113231;28;20024;-66
2021/06/08 14:31:06;;;;;;;3.40;2.00;;;;;;;;;;5112102;28;20050;-66
2021/06/08 14:33:31;;;;;;;1.70;1.42;;;;;;;;;;5102038;28;20471;-66
2021/06/08 14:35:56;;;;;;;3.53;1.40;;;;;;;;;;5106003;28;20032;-66
2021/06/08 14:38:22;;;;;;;3.00;1.30;;;;;;;;;;5112623;28;20062;-64
2021/06/08 14:40:47;;;;;;;3.15;1.13;;;;;;;;;;5113052;28;20023;-66
2021/06/08 14:43:12;;;;;;;4.22;1.50;;;;;;;;;;5108546;28;20032;-66
2021/06/08 14:45:38;;;;;;;3.40;1.15;;;;;;;;;;5102472;28;20032;-66